sensor_id;sensor_type;location;lat;lon;timestamp;temperature;humidity
10468;DHT22;5281;48.878;9.394;2023-11-22T00:00:21;9.00;99.90
10468;DHT22;5281;48.878;9.394;2023-11-22T00:02:47;8.90;99.90
10468;DHT22;5281;48.878;9.394;2023-11-22T00:05:14;8.60;99.90
10468;DHT22;5281;48.878;9.394;2023-11-22T00:07:41;8.40;99.90
10468;DHT22;5281;48.878;9.394;2023-11-22T00:10:07;8.10;99.90
10468;DHT22;5281;48.878;9.394;2023-11-22T00:12:35;7.90;99.90
10468;DHT22;5281;48.878;9.394;2023-11-22T00:15:06;7.70;99.90
10468;DHT22;5281;48.878;9.394;2023-11-22T00:17:33;7.50;99.90
10468;DHT22;5281;48.878;9.394;2023-11-22T00:20:00;7.30;99.90
10468;DHT22;5281;48.878;9.394;2023-11-22T00:22:31;7.20;99.90
10468;DHT22;5281;48.878;9.394;2023-11-22T00:24:57;7.10;99.90
10468;DHT22;5281;48.878;9.394;2023-11-22T00:27:24;7.00;99.90
10468;DHT22;5281;48.878;9.394;2023-11-22T00:29:51;7.00;99.90
10468;DHT22;5281;48.878;9.394;2023-11-22T00:32:20;7.00;99.90
10468;DHT22;5281;48.878;9.394;2023-11-22T00:34:46;6.90;99.90
10468;DHT22;5281;48.878;9.394;2023-11-22T00:37:14;6.90;99.90
10468;DHT22;5281;48.878;9.394;2023-11-22T00:39:40;6.90;99.90
10468;DHT22;5281;48.878;9.394;2023-11-22T00:42:08;6.80;99.90
10468;DHT22;5281;48.878;9.394;2023-11-22T00:44:34;6.80;99.90
10468;DHT22;5281;48.878;9.394;2023-11-22T00:47:01;6.80;99.90
10468;DHT22;5281;48.878;9.394;2023-11-22T00:49:29;6.80;99.90
10468;DHT22;5281;48.878;9.394;2023-11-22T00:51:56;6.80;99.90
10468;DHT22;5281;48.878;9.394;2023-11-22T00:54:23;6.70;99.90
10468;DHT22;5281;48.878;9.394;2023-11-22T00:56:50;6.70;99.90
10468;DHT22;5281;48.878;9.394;2023-11-22T00:59:17;6.70;99.90
10468;DHT22;5281;48.878;9.394;2023-11-22T01:01:45;6.70;99.90
10468;DHT22;5281;48.878;9.394;2023-11-22T01:04:11;6.70;99.90
10468;DHT22;5281;48.878;9.394;2023-11-22T01:06:39;6.70;99.90
10468;DHT22;5281;48.878;9.394;2023-11-22T01:09:06;6.80;99.90
10468;DHT22;5281;48.878;9.394;2023-11-22T01:11:34;6.90;99.90
10468;DHT22;5281;48.878;9.394;2023-11-22T01:14:01;6.90;99.90
10468;DHT22;5281;48.878;9.394;2023-11-22T01:16:27;6.90;99.90
10468;DHT22;5281;48.878;9.394;2023-11-22T01:18:54;6.90;99.90
10468;DHT22;5281;48.878;9.394;2023-11-22T01:21:21;6.90;99.90
10468;DHT22;5281;48.878;9.394;2023-11-22T01:23:49;6.90;99.90
10468;DHT22;5281;48.878;9.394;2023-11-22T01:26:16;6.90;99.90
10468;DHT22;5281;48.878;9.394;2023-11-22T01:28:43;6.80;99.90
10468;DHT22;5281;48.878;9.394;2023-11-22T01:31:11;6.90;99.90
10468;DHT22;5281;48.878;9.394;2023-11-22T01:33:39;6.80;99.90
10468;DHT22;5281;48.878;9.394;2023-11-22T01:36:06;6.80;99.90
10468;DHT22;5281;48.878;9.394;2023-11-22T01:38:33;6.80;99.90
10468;DHT22;5281;48.878;9.394;2023-11-22T01:41:01;6.80;99.90
10468;DHT22;5281;48.878;9.394;2023-11-22T01:43:28;6.80;99.90
10468;DHT22;5281;48.878;9.394;2023-11-22T01:45:54;6.80;99.90
10468;DHT22;5281;48.878;9.394;2023-11-22T01:48:22;6.80;99.90
10468;DHT22;5281;48.878;9.394;2023-11-22T01:50:49;6.80;99.90
10468;DHT22;5281;48.878;9.394;2023-11-22T01:53:16;6.90;99.90
10468;DHT22;5281;48.878;9.394;2023-11-22T01:55:44;6.90;99.90
10468;DHT22;5281;48.878;9.394;2023-11-22T01:58:13;6.80;99.90
10468;DHT22;5281;48.878;9.394;2023-11-22T02:00:45;6.70;99.90
10468;DHT22;5281;48.878;9.394;2023-11-22T02:03:12;6.80;99.90
10468;DHT22;5281;48.878;9.394;2023-11-22T02:05:40;6.80;99.90
10468;DHT22;5281;48.878;9.394;2023-11-22T02:08:08;6.90;99.90
10468;DHT22;5281;48.878;9.394;2023-11-22T02:10:35;6.90;99.90
10468;DHT22;5281;48.878;9.394;2023-11-22T02:13:02;6.90;99.90
10468;DHT22;5281;48.878;9.394;2023-11-22T02:15:31;6.80;99.90
10468;DHT22;5281;48.878;9.394;2023-11-22T02:17:58;6.90;99.90
10468;DHT22;5281;48.878;9.394;2023-11-22T02:20:25;7.00;99.90
10468;DHT22;5281;48.878;9.394;2023-11-22T02:22:52;7.00;99.90
10468;DHT22;5281;48.878;9.394;2023-11-22T02:25:21;7.00;99.90
10468;DHT22;5281;48.878;9.394;2023-11-22T02:27:47;7.00;99.90
10468;DHT22;5281;48.878;9.394;2023-11-22T02:30:14;6.90;99.90
10468;DHT22;5281;48.878;9.394;2023-11-22T02:32:41;6.80;99.90
10468;DHT22;5281;48.878;9.394;2023-11-22T02:35:09;6.80;99.90
10468;DHT22;5281;48.878;9.394;2023-11-22T02:37:35;6.80;99.90
10468;DHT22;5281;48.878;9.394;2023-11-22T02:40:06;6.80;99.90
10468;DHT22;5281;48.878;9.394;2023-11-22T02:42:35;6.80;99.90
10468;DHT22;5281;48.878;9.394;2023-11-22T02:45:02;6.60;99.90
10468;DHT22;5281;48.878;9.394;2023-11-22T02:47:30;6.50;99.90
10468;DHT22;5281;48.878;9.394;2023-11-22T02:49:57;6.50;99.90
10468;DHT22;5281;48.878;9.394;2023-11-22T02:52:24;6.40;99.90
10468;DHT22;5281;48.878;9.394;2023-11-22T02:54:52;6.30;99.90
10468;DHT22;5281;48.878;9.394;2023-11-22T02:57:18;6.20;99.90
10468;DHT22;5281;48.878;9.394;2023-11-22T02:59:46;6.20;99.90
10468;DHT22;5281;48.878;9.394;2023-11-22T03:02:13;6.20;99.90
10468;DHT22;5281;48.878;9.394;2023-11-22T03:04:42;6.20;99.90
10468;DHT22;5281;48.878;9.394;2023-11-22T03:07:09;6.20;99.90
10468;DHT22;5281;48.878;9.394;2023-11-22T03:09:35;6.10;99.90
10468;DHT22;5281;48.878;9.394;2023-11-22T03:12:03;6.00;99.90
10468;DHT22;5281;48.878;9.394;2023-11-22T03:14:30;5.90;99.90
10468;DHT22;5281;48.878;9.394;2023-11-22T03:16:58;6.00;99.90
10468;DHT22;5281;48.878;9.394;2023-11-22T03:19:25;6.00;99.90
10468;DHT22;5281;48.878;9.394;2023-11-22T03:21:51;6.00;99.90
10468;DHT22;5281;48.878;9.394;2023-11-22T03:24:18;6.00;99.90
10468;DHT22;5281;48.878;9.394;2023-11-22T03:26:45;6.10;99.90
10468;DHT22;5281;48.878;9.394;2023-11-22T03:29:11;6.00;99.90
10468;DHT22;5281;48.878;9.394;2023-11-22T03:31:38;5.90;99.90
10468;DHT22;5281;48.878;9.394;2023-11-22T03:34:06;6.00;99.90
10468;DHT22;5281;48.878;9.394;2023-11-22T03:36:33;5.50;99.90
10468;DHT22;5281;48.878;9.394;2023-11-22T03:39:00;6.20;99.90
10468;DHT22;5281;48.878;9.394;2023-11-22T03:41:28;6.20;99.90
10468;DHT22;5281;48.878;9.394;2023-11-22T03:43:54;6.10;99.90
10468;DHT22;5281;48.878;9.394;2023-11-22T03:46:21;6.00;99.90
10468;DHT22;5281;48.878;9.394;2023-11-22T03:48:48;6.00;99.90
10468;DHT22;5281;48.878;9.394;2023-11-22T03:51:16;6.00;99.90
10468;DHT22;5281;48.878;9.394;2023-11-22T03:53:42;5.90;99.90
10468;DHT22;5281;48.878;9.394;2023-11-22T03:56:09;5.90;99.90
10468;DHT22;5281;48.878;9.394;2023-11-22T03:58:36;6.00;99.90
10468;DHT22;5281;48.878;9.394;2023-11-22T04:01:04;6.00;99.90
10468;DHT22;5281;48.878;9.394;2023-11-22T04:03:31;6.00;99.90
10468;DHT22;5281;48.878;9.394;2023-11-22T04:05:58;6.00;99.90
10468;DHT22;5281;48.878;9.394;2023-11-22T04:08:26;6.10;99.90
10468;DHT22;5281;48.878;9.394;2023-11-22T04:10:52;6.10;99.90
10468;DHT22;5281;48.878;9.394;2023-11-22T04:13:19;6.10;99.90
10468;DHT22;5281;48.878;9.394;2023-11-22T04:15:46;6.10;99.90
10468;DHT22;5281;48.878;9.394;2023-11-22T04:18:13;6.10;99.90
10468;DHT22;5281;48.878;9.394;2023-11-22T04:20:39;6.10;99.90
10468;DHT22;5281;48.878;9.394;2023-11-22T04:23:06;6.10;99.90
10468;DHT22;5281;48.878;9.394;2023-11-22T04:25:37;6.00;99.90
10468;DHT22;5281;48.878;9.394;2023-11-22T04:28:04;5.90;99.90
10468;DHT22;5281;48.878;9.394;2023-11-22T04:30:34;5.80;99.90
10468;DHT22;5281;48.878;9.394;2023-11-22T04:33:00;5.80;99.90
10468;DHT22;5281;48.878;9.394;2023-11-22T04:35:28;5.70;99.90
10468;DHT22;5281;48.878;9.394;2023-11-22T04:37:54;5.60;99.90
10468;DHT22;5281;48.878;9.394;2023-11-22T04:40:21;5.60;99.90
10468;DHT22;5281;48.878;9.394;2023-11-22T04:42:49;5.50;99.90
10468;DHT22;5281;48.878;9.394;2023-11-22T04:45:16;5.40;99.90
10468;DHT22;5281;48.878;9.394;2023-11-22T04:47:42;5.40;99.90
10468;DHT22;5281;48.878;9.394;2023-11-22T04:50:10;5.30;99.90
10468;DHT22;5281;48.878;9.394;2023-11-22T04:52:37;5.20;99.90
10468;DHT22;5281;48.878;9.394;2023-11-22T04:55:05;5.20;99.90
10468;DHT22;5281;48.878;9.394;2023-11-22T04:57:31;5.20;99.90
10468;DHT22;5281;48.878;9.394;2023-11-22T05:00:00;5.20;99.90
10468;DHT22;5281;48.878;9.394;2023-11-22T05:02:29;5.30;99.90
10468;DHT22;5281;48.878;9.394;2023-11-22T05:04:55;5.30;99.90
10468;DHT22;5281;48.878;9.394;2023-11-22T05:07:22;5.30;99.90
10468;DHT22;5281;48.878;9.394;2023-11-22T05:09:49;5.40;99.90
10468;DHT22;5281;48.878;9.394;2023-11-22T05:12:15;5.50;99.90
10468;DHT22;5281;48.878;9.394;2023-11-22T05:14:42;5.60;99.90
10468;DHT22;5281;48.878;9.394;2023-11-22T05:17:12;5.70;99.90
10468;DHT22;5281;48.878;9.394;2023-11-22T05:19:39;5.70;99.90
10468;DHT22;5281;48.878;9.394;2023-11-22T05:22:05;5.70;99.90
10468;DHT22;5281;48.878;9.394;2023-11-22T05:24:33;5.80;99.90
10468;DHT22;5281;48.878;9.394;2023-11-22T05:27:00;5.80;99.90
10468;DHT22;5281;48.878;9.394;2023-11-22T05:29:27;5.80;99.90
10468;DHT22;5281;48.878;9.394;2023-11-22T05:31:54;5.90;99.90
10468;DHT22;5281;48.878;9.394;2023-11-22T05:34:22;6.00;99.90
10468;DHT22;5281;48.878;9.394;2023-11-22T05:36:48;6.10;99.90
10468;DHT22;5281;48.878;9.394;2023-11-22T05:39:15;6.20;99.90
10468;DHT22;5281;48.878;9.394;2023-11-22T05:41:43;6.30;99.90
10468;DHT22;5281;48.878;9.394;2023-11-22T05:44:09;6.30;99.90
10468;DHT22;5281;48.878;9.394;2023-11-22T05:46:36;6.30;99.90
10468;DHT22;5281;48.878;9.394;2023-11-22T05:49:04;6.20;99.90
10468;DHT22;5281;48.878;9.394;2023-11-22T05:51:32;6.10;99.90
10468;DHT22;5281;48.878;9.394;2023-11-22T05:53:59;6.10;99.90
10468;DHT22;5281;48.878;9.394;2023-11-22T05:56:26;6.10;99.90
10468;DHT22;5281;48.878;9.394;2023-11-22T05:58:52;6.10;99.90
10468;DHT22;5281;48.878;9.394;2023-11-22T06:01:19;6.10;99.90
10468;DHT22;5281;48.878;9.394;2023-11-22T06:03:46;6.20;99.90
10468;DHT22;5281;48.878;9.394;2023-11-22T06:06:14;6.30;99.90
10468;DHT22;5281;48.878;9.394;2023-11-22T06:08:42;6.20;99.90
10468;DHT22;5281;48.878;9.394;2023-11-22T06:11:09;6.30;99.90
10468;DHT22;5281;48.878;9.394;2023-11-22T06:13:35;6.30;99.90
10468;DHT22;5281;48.878;9.394;2023-11-22T06:16:02;6.30;99.90
10468;DHT22;5281;48.878;9.394;2023-11-22T06:18:29;6.30;99.90
10468;DHT22;5281;48.878;9.394;2023-11-22T06:20:56;6.30;99.90
10468;DHT22;5281;48.878;9.394;2023-11-22T06:23:22;6.30;99.90
10468;DHT22;5281;48.878;9.394;2023-11-22T06:25:50;6.20;99.90
10468;DHT22;5281;48.878;9.394;2023-11-22T06:28:17;6.30;99.90
10468;DHT22;5281;48.878;9.394;2023-11-22T06:30:44;6.30;99.90
10468;DHT22;5281;48.878;9.394;2023-11-22T06:33:11;6.40;99.90
10468;DHT22;5281;48.878;9.394;2023-11-22T06:35:37;6.50;99.90
10468;DHT22;5281;48.878;9.394;2023-11-22T06:38:04;6.60;99.90
10468;DHT22;5281;48.878;9.394;2023-11-22T06:40:31;6.70;99.90
10468;DHT22;5281;48.878;9.394;2023-11-22T06:42:59;6.70;99.90
10468;DHT22;5281;48.878;9.394;2023-11-22T06:45:25;6.60;99.90
10468;DHT22;5281;48.878;9.394;2023-11-22T06:47:52;6.70;99.90
10468;DHT22;5281;48.878;9.394;2023-11-22T06:50:19;6.70;99.90
10468;DHT22;5281;48.878;9.394;2023-11-22T06:52:46;6.70;99.90
10468;DHT22;5281;48.878;9.394;2023-11-22T06:55:15;6.60;99.90
10468;DHT22;5281;48.878;9.394;2023-11-22T06:57:43;6.70;99.90
10468;DHT22;5281;48.878;9.394;2023-11-22T07:00:12;6.60;99.90
10468;DHT22;5281;48.878;9.394;2023-11-22T07:02:39;6.70;99.90
10468;DHT22;5281;48.878;9.394;2023-11-22T07:05:06;6.80;99.90
10468;DHT22;5281;48.878;9.394;2023-11-22T07:07:34;6.60;99.90
10468;DHT22;5281;48.878;9.394;2023-11-22T07:10:01;6.20;99.90
10468;DHT22;5281;48.878;9.394;2023-11-22T07:12:28;6.10;99.90
10468;DHT22;5281;48.878;9.394;2023-11-22T07:14:55;5.80;99.90
10468;DHT22;5281;48.878;9.394;2023-11-22T07:17:23;5.70;99.90
10468;DHT22;5281;48.878;9.394;2023-11-22T07:19:53;5.70;99.90
10468;DHT22;5281;48.878;9.394;2023-11-22T07:22:19;5.60;99.90
10468;DHT22;5281;48.878;9.394;2023-11-22T07:24:48;5.60;99.90
10468;DHT22;5281;48.878;9.394;2023-11-22T07:27:17;5.70;99.90
10468;DHT22;5281;48.878;9.394;2023-11-22T07:29:44;5.60;99.90
10468;DHT22;5281;48.878;9.394;2023-11-22T07:32:12;5.60;99.90
10468;DHT22;5281;48.878;9.394;2023-11-22T07:34:41;5.50;99.90
10468;DHT22;5281;48.878;9.394;2023-11-22T07:37:08;5.30;99.90
10468;DHT22;5281;48.878;9.394;2023-11-22T07:39:35;5.20;99.90
10468;DHT22;5281;48.878;9.394;2023-11-22T07:42:02;5.10;99.90
10468;DHT22;5281;48.878;9.394;2023-11-22T07:44:28;5.20;99.90
10468;DHT22;5281;48.878;9.394;2023-11-22T07:46:58;5.30;99.90
10468;DHT22;5281;48.878;9.394;2023-11-22T07:49:25;5.40;99.90
10468;DHT22;5281;48.878;9.394;2023-11-22T07:51:53;5.50;99.90
10468;DHT22;5281;48.878;9.394;2023-11-22T07:54:21;5.40;99.90
10468;DHT22;5281;48.878;9.394;2023-11-22T07:56:48;5.30;99.90
10468;DHT22;5281;48.878;9.394;2023-11-22T07:59:15;5.20;99.90
10468;DHT22;5281;48.878;9.394;2023-11-22T08:01:43;5.30;99.90
10468;DHT22;5281;48.878;9.394;2023-11-22T08:04:10;5.20;99.90
10468;DHT22;5281;48.878;9.394;2023-11-22T08:06:37;5.30;99.90
10468;DHT22;5281;48.878;9.394;2023-11-22T08:09:05;5.40;99.90
10468;DHT22;5281;48.878;9.394;2023-11-22T08:11:34;5.40;99.90
10468;DHT22;5281;48.878;9.394;2023-11-22T08:14:01;5.40;99.90
10468;DHT22;5281;48.878;9.394;2023-11-22T08:16:27;5.40;99.90
10468;DHT22;5281;48.878;9.394;2023-11-22T08:18:54;5.40;99.90
10468;DHT22;5281;48.878;9.394;2023-11-22T08:21:22;5.30;99.90
10468;DHT22;5281;48.878;9.394;2023-11-22T08:23:49;5.30;99.90
10468;DHT22;5281;48.878;9.394;2023-11-22T08:26:17;5.40;99.90
10468;DHT22;5281;48.878;9.394;2023-11-22T08:28:43;5.30;99.90
10468;DHT22;5281;48.878;9.394;2023-11-22T08:31:10;5.40;99.90
10468;DHT22;5281;48.878;9.394;2023-11-22T08:33:37;5.40;99.90
10468;DHT22;5281;48.878;9.394;2023-11-22T08:36:04;5.40;99.90
10468;DHT22;5281;48.878;9.394;2023-11-22T08:38:31;5.30;99.90
10468;DHT22;5281;48.878;9.394;2023-11-22T08:41:01;5.30;99.90
10468;DHT22;5281;48.878;9.394;2023-11-22T08:43:29;5.10;99.90
10468;DHT22;5281;48.878;9.394;2023-11-22T08:45:57;5.10;99.90
10468;DHT22;5281;48.878;9.394;2023-11-22T08:48:24;5.10;99.90
10468;DHT22;5281;48.878;9.394;2023-11-22T08:50:51;5.10;99.90
10468;DHT22;5281;48.878;9.394;2023-11-22T08:53:19;5.20;99.90
10468;DHT22;5281;48.878;9.394;2023-11-22T08:55:46;5.20;99.90
10468;DHT22;5281;48.878;9.394;2023-11-22T08:58:12;5.20;99.90
10468;DHT22;5281;48.878;9.394;2023-11-22T09:00:41;5.20;99.90
10468;DHT22;5281;48.878;9.394;2023-11-22T09:03:10;5.30;99.90
10468;DHT22;5281;48.878;9.394;2023-11-22T09:05:38;5.40;99.90
10468;DHT22;5281;48.878;9.394;2023-11-22T09:08:05;5.50;99.90
10468;DHT22;5281;48.878;9.394;2023-11-22T09:10:32;5.50;99.90
10468;DHT22;5281;48.878;9.394;2023-11-22T09:12:59;5.60;99.90
10468;DHT22;5281;48.878;9.394;2023-11-22T09:15:25;5.70;99.90
10468;DHT22;5281;48.878;9.394;2023-11-22T09:17:56;5.70;99.90
10468;DHT22;5281;48.878;9.394;2023-11-22T09:20:23;5.70;99.90
10468;DHT22;5281;48.878;9.394;2023-11-22T09:22:51;5.70;99.90
10468;DHT22;5281;48.878;9.394;2023-11-22T09:25:19;5.60;99.90
10468;DHT22;5281;48.878;9.394;2023-11-22T09:27:49;5.60;99.90
10468;DHT22;5281;48.878;9.394;2023-11-22T09:30:19;5.70;99.90
10468;DHT22;5281;48.878;9.394;2023-11-22T09:32:59;5.70;99.90
10468;DHT22;5281;48.878;9.394;2023-11-22T09:35:26;5.70;99.90
10468;DHT22;5281;48.878;9.394;2023-11-22T09:37:54;5.80;99.90
10468;DHT22;5281;48.878;9.394;2023-11-22T09:40:22;6.00;99.90
10468;DHT22;5281;48.878;9.394;2023-11-22T09:42:49;6.20;99.90
10468;DHT22;5281;48.878;9.394;2023-11-22T09:45:19;6.20;99.90
10468;DHT22;5281;48.878;9.394;2023-11-22T09:47:46;6.30;99.90
10468;DHT22;5281;48.878;9.394;2023-11-22T09:50:29;6.40;99.90
10468;DHT22;5281;48.878;9.394;2023-11-22T09:53:00;6.40;99.90
10468;DHT22;5281;48.878;9.394;2023-11-22T09:55:30;6.50;99.90
10468;DHT22;5281;48.878;9.394;2023-11-22T09:57:58;6.50;99.90
10468;DHT22;5281;48.878;9.394;2023-11-22T10:00:26;6.50;99.90
10468;DHT22;5281;48.878;9.394;2023-11-22T10:02:55;6.50;99.90
10468;DHT22;5281;48.878;9.394;2023-11-22T10:05:24;6.50;99.90
10468;DHT22;5281;48.878;9.394;2023-11-22T10:07:54;6.50;99.90
10468;DHT22;5281;48.878;9.394;2023-11-22T10:10:21;6.40;99.90
10468;DHT22;5281;48.878;9.394;2023-11-22T10:12:54;6.40;99.90
10468;DHT22;5281;48.878;9.394;2023-11-22T10:15:22;6.50;99.90
10468;DHT22;5281;48.878;9.394;2023-11-22T10:17:54;6.50;99.90
10468;DHT22;5281;48.878;9.394;2023-11-22T10:20:24;6.60;99.90
10468;DHT22;5281;48.878;9.394;2023-11-22T10:22:51;6.80;99.90
10468;DHT22;5281;48.878;9.394;2023-11-22T10:25:19;6.90;99.90
10468;DHT22;5281;48.878;9.394;2023-11-22T10:27:48;7.00;99.90
10468;DHT22;5281;48.878;9.394;2023-11-22T10:30:17;6.90;99.90
10468;DHT22;5281;48.878;9.394;2023-11-22T10:32:44;6.80;99.90
10468;DHT22;5281;48.878;9.394;2023-11-22T10:35:11;6.60;99.90
10468;DHT22;5281;48.878;9.394;2023-11-22T10:37:41;6.50;99.90
10468;DHT22;5281;48.878;9.394;2023-11-22T10:40:12;6.40;99.90
10468;DHT22;5281;48.878;9.394;2023-11-22T10:42:40;6.40;99.90
10468;DHT22;5281;48.878;9.394;2023-11-22T10:45:09;6.30;99.90
10468;DHT22;5281;48.878;9.394;2023-11-22T10:47:37;6.40;99.90
10468;DHT22;5281;48.878;9.394;2023-11-22T10:50:05;6.50;99.90
10468;DHT22;5281;48.878;9.394;2023-11-22T10:52:35;6.60;99.90
10468;DHT22;5281;48.878;9.394;2023-11-22T10:55:04;6.70;99.90
10468;DHT22;5281;48.878;9.394;2023-11-22T10:57:35;6.90;99.90
10468;DHT22;5281;48.878;9.394;2023-11-22T11:00:04;7.00;99.90
10468;DHT22;5281;48.878;9.394;2023-11-22T11:02:35;7.10;99.90
10468;DHT22;5281;48.878;9.394;2023-11-22T11:05:09;7.30;99.90
10468;DHT22;5281;48.878;9.394;2023-11-22T11:07:47;7.50;99.90
10468;DHT22;5281;48.878;9.394;2023-11-22T11:10:18;7.70;99.90
10468;DHT22;5281;48.878;9.394;2023-11-22T11:12:46;7.80;99.90
10468;DHT22;5281;48.878;9.394;2023-11-22T11:15:13;7.70;99.90
10468;DHT22;5281;48.878;9.394;2023-11-22T11:17:42;7.50;99.90
10468;DHT22;5281;48.878;9.394;2023-11-22T11:20:11;7.40;99.90
10468;DHT22;5281;48.878;9.394;2023-11-22T11:22:39;7.30;99.90
10468;DHT22;5281;48.878;9.394;2023-11-22T11:25:06;7.30;99.90
10468;DHT22;5281;48.878;9.394;2023-11-22T11:27:35;7.30;99.90
10468;DHT22;5281;48.878;9.394;2023-11-22T11:30:08;7.40;99.90
10468;DHT22;5281;48.878;9.394;2023-11-22T11:32:57;7.50;99.90
10468;DHT22;5281;48.878;9.394;2023-11-22T11:35:37;7.50;99.90
10468;DHT22;5281;48.878;9.394;2023-11-22T11:38:04;7.40;99.90
10468;DHT22;5281;48.878;9.394;2023-11-22T11:40:34;7.40;99.90
10468;DHT22;5281;48.878;9.394;2023-11-22T11:43:01;7.40;99.90
10468;DHT22;5281;48.878;9.394;2023-11-22T11:45:28;7.40;99.90
10468;DHT22;5281;48.878;9.394;2023-11-22T11:47:57;7.40;99.90
10468;DHT22;5281;48.878;9.394;2023-11-22T11:50:24;7.40;99.90
10468;DHT22;5281;48.878;9.394;2023-11-22T11:52:52;7.30;99.90
10468;DHT22;5281;48.878;9.394;2023-11-22T11:55:18;7.00;99.90
10468;DHT22;5281;48.878;9.394;2023-11-22T11:57:45;6.80;99.90
10468;DHT22;5281;48.878;9.394;2023-11-22T12:00:14;6.70;99.90
10468;DHT22;5281;48.878;9.394;2023-11-22T12:02:40;6.70;99.90
10468;DHT22;5281;48.878;9.394;2023-11-22T12:05:08;6.80;99.90
10468;DHT22;5281;48.878;9.394;2023-11-22T12:07:35;6.90;99.90
10468;DHT22;5281;48.878;9.394;2023-11-22T12:10:02;6.90;99.90
10468;DHT22;5281;48.878;9.394;2023-11-22T12:12:31;6.90;99.90
10468;DHT22;5281;48.878;9.394;2023-11-22T12:14:58;6.90;99.90
10468;DHT22;5281;48.878;9.394;2023-11-22T12:17:25;6.90;99.90
10468;DHT22;5281;48.878;9.394;2023-11-22T12:19:52;6.70;99.90
10468;DHT22;5281;48.878;9.394;2023-11-22T12:22:21;6.60;99.90
10468;DHT22;5281;48.878;9.394;2023-11-22T12:24:48;6.50;99.90
10468;DHT22;5281;48.878;9.394;2023-11-22T12:27:14;6.50;99.90
10468;DHT22;5281;48.878;9.394;2023-11-22T12:29:41;6.40;99.90
10468;DHT22;5281;48.878;9.394;2023-11-22T12:32:08;6.30;99.90
10468;DHT22;5281;48.878;9.394;2023-11-22T12:34:35;6.40;99.90
10468;DHT22;5281;48.878;9.394;2023-11-22T12:37:02;6.30;99.90
10468;DHT22;5281;48.878;9.394;2023-11-22T12:39:31;6.30;99.90
10468;DHT22;5281;48.878;9.394;2023-11-22T12:41:57;6.20;99.90
10468;DHT22;5281;48.878;9.394;2023-11-22T12:44:24;6.30;99.90
10468;DHT22;5281;48.878;9.394;2023-11-22T12:46:52;6.40;99.90
10468;DHT22;5281;48.878;9.394;2023-11-22T12:49:22;6.50;99.90
10468;DHT22;5281;48.878;9.394;2023-11-22T12:51:50;6.50;99.90
10468;DHT22;5281;48.878;9.394;2023-11-22T12:54:17;6.50;99.90
10468;DHT22;5281;48.878;9.394;2023-11-22T12:56:51;6.50;99.90
10468;DHT22;5281;48.878;9.394;2023-11-22T12:59:20;6.40;99.90
10468;DHT22;5281;48.878;9.394;2023-11-22T13:01:46;6.50;99.90
10468;DHT22;5281;48.878;9.394;2023-11-22T13:04:13;6.60;99.90
10468;DHT22;5281;48.878;9.394;2023-11-22T13:06:40;6.50;99.90
10468;DHT22;5281;48.878;9.394;2023-11-22T13:09:07;6.50;99.90
10468;DHT22;5281;48.878;9.394;2023-11-22T13:11:40;6.40;99.90
10468;DHT22;5281;48.878;9.394;2023-11-22T13:14:08;6.30;99.90
10468;DHT22;5281;48.878;9.394;2023-11-22T13:16:35;6.10;99.90
10468;DHT22;5281;48.878;9.394;2023-11-22T13:19:04;5.90;99.90
10468;DHT22;5281;48.878;9.394;2023-11-22T13:21:31;5.90;99.90
10468;DHT22;5281;48.878;9.394;2023-11-22T13:23:57;6.00;99.90
10468;DHT22;5281;48.878;9.394;2023-11-22T13:26:25;6.10;99.90
10468;DHT22;5281;48.878;9.394;2023-11-22T13:28:52;6.10;99.90
10468;DHT22;5281;48.878;9.394;2023-11-22T13:31:21;6.00;99.90
10468;DHT22;5281;48.878;9.394;2023-11-22T13:33:48;6.00;99.90
10468;DHT22;5281;48.878;9.394;2023-11-22T13:36:15;6.10;99.90
10468;DHT22;5281;48.878;9.394;2023-11-22T13:38:42;6.20;99.90
10468;DHT22;5281;48.878;9.394;2023-11-22T13:41:09;6.30;99.90
10468;DHT22;5281;48.878;9.394;2023-11-22T13:43:36;6.30;99.90
10468;DHT22;5281;48.878;9.394;2023-11-22T13:46:04;6.30;99.90
10468;DHT22;5281;48.878;9.394;2023-11-22T13:48:32;6.40;99.90
10468;DHT22;5281;48.878;9.394;2023-11-22T13:50:58;6.40;99.90
10468;DHT22;5281;48.878;9.394;2023-11-22T13:53:26;6.50;99.90
10468;DHT22;5281;48.878;9.394;2023-11-22T13:55:57;6.50;99.90
10468;DHT22;5281;48.878;9.394;2023-11-22T13:58:25;6.40;99.90
10468;DHT22;5281;48.878;9.394;2023-11-22T14:00:52;6.40;99.90
10468;DHT22;5281;48.878;9.394;2023-11-22T14:03:20;6.30;99.90
10468;DHT22;5281;48.878;9.394;2023-11-22T14:05:48;6.30;99.90
10468;DHT22;5281;48.878;9.394;2023-11-22T14:08:15;6.30;99.90
10468;DHT22;5281;48.878;9.394;2023-11-22T14:10:42;6.50;99.90
10468;DHT22;5281;48.878;9.394;2023-11-22T14:13:10;6.50;99.90
10468;DHT22;5281;48.878;9.394;2023-11-22T14:15:37;6.50;99.90
10468;DHT22;5281;48.878;9.394;2023-11-22T14:18:04;6.50;99.90
10468;DHT22;5281;48.878;9.394;2023-11-22T14:20:31;6.50;99.90
10468;DHT22;5281;48.878;9.394;2023-11-22T14:23:01;6.60;99.90
10468;DHT22;5281;48.878;9.394;2023-11-22T14:25:28;6.50;99.90
10468;DHT22;5281;48.878;9.394;2023-11-22T14:27:55;6.50;99.90
10468;DHT22;5281;48.878;9.394;2023-11-22T14:30:22;6.40;99.90
10468;DHT22;5281;48.878;9.394;2023-11-22T14:32:51;6.30;99.90
10468;DHT22;5281;48.878;9.394;2023-11-22T14:35:18;6.20;99.90
10468;DHT22;5281;48.878;9.394;2023-11-22T14:37:45;6.20;99.90
10468;DHT22;5281;48.878;9.394;2023-11-22T14:40:14;6.20;99.90
10468;DHT22;5281;48.878;9.394;2023-11-22T14:42:41;6.10;99.90
10468;DHT22;5281;48.878;9.394;2023-11-22T14:45:08;6.10;99.90
10468;DHT22;5281;48.878;9.394;2023-11-22T14:47:36;6.00;99.90
10468;DHT22;5281;48.878;9.394;2023-11-22T14:50:06;5.90;99.90
10468;DHT22;5281;48.878;9.394;2023-11-22T14:52:33;5.90;99.90
10468;DHT22;5281;48.878;9.394;2023-11-22T14:55:00;5.90;99.90
10468;DHT22;5281;48.878;9.394;2023-11-22T14:57:29;6.00;99.90
10468;DHT22;5281;48.878;9.394;2023-11-22T14:59:56;5.90;99.90
10468;DHT22;5281;48.878;9.394;2023-11-22T15:02:23;6.00;99.90
10468;DHT22;5281;48.878;9.394;2023-11-22T15:04:52;6.10;99.90
10468;DHT22;5281;48.878;9.394;2023-11-22T15:07:18;6.20;99.90
10468;DHT22;5281;48.878;9.394;2023-11-22T15:09:45;6.20;99.90
10468;DHT22;5281;48.878;9.394;2023-11-22T15:12:12;6.20;99.90
10468;DHT22;5281;48.878;9.394;2023-11-22T15:14:40;6.30;99.90
10468;DHT22;5281;48.878;9.394;2023-11-22T15:17:07;6.30;99.90
10468;DHT22;5281;48.878;9.394;2023-11-22T15:19:33;6.30;99.90
10468;DHT22;5281;48.878;9.394;2023-11-22T15:22:03;6.20;99.90
10468;DHT22;5281;48.878;9.394;2023-11-22T15:24:31;6.20;99.90
10468;DHT22;5281;48.878;9.394;2023-11-22T15:26:58;6.10;99.90
10468;DHT22;5281;48.878;9.394;2023-11-22T15:29:25;6.10;99.90
10468;DHT22;5281;48.878;9.394;2023-11-22T15:31:53;6.10;99.90
10468;DHT22;5281;48.878;9.394;2023-11-22T15:34:20;6.10;99.90
10468;DHT22;5281;48.878;9.394;2023-11-22T15:36:47;6.10;99.90
10468;DHT22;5281;48.878;9.394;2023-11-22T15:39:13;6.10;99.90
10468;DHT22;5281;48.878;9.394;2023-11-22T15:41:43;6.00;99.90
10468;DHT22;5281;48.878;9.394;2023-11-22T15:44:10;6.10;99.90
10468;DHT22;5281;48.878;9.394;2023-11-22T15:46:38;6.10;99.90
10468;DHT22;5281;48.878;9.394;2023-11-22T15:49:08;6.10;99.90
10468;DHT22;5281;48.878;9.394;2023-11-22T15:51:35;6.10;99.90
10468;DHT22;5281;48.878;9.394;2023-11-22T15:54:02;6.00;99.90
10468;DHT22;5281;48.878;9.394;2023-11-22T15:56:29;5.90;99.90
10468;DHT22;5281;48.878;9.394;2023-11-22T15:58:56;6.00;99.90
10468;DHT22;5281;48.878;9.394;2023-11-22T16:01:25;6.00;99.90
10468;DHT22;5281;48.878;9.394;2023-11-22T16:03:51;6.00;99.90